sensor_id;sensor_type;location;lat;lon;timestamp;P1;durP1;ratioP1;P2;durP2;ratioP2
44989;SDS011;30723;51.206;3.326;2023-02-23T00:01:55;142.43;;;46.47;;
44989;SDS011;30723;51.206;3.326;2023-02-23T00:04:25;125.55;;;45.92;;
44989;SDS011;30723;51.206;3.326;2023-02-23T00:06:53;125.50;;;45.25;;
44989;SDS011;30723;51.206;3.326;2023-02-23T00:09:19;139.60;;;45.35;;
44989;SDS011;30723;51.206;3.326;2023-02-23T00:11:51;131.45;;;45.40;;
44989;SDS011;30723;51.206;3.326;2023-02-23T00:14:19;142.38;;;44.78;;
44989;SDS011;30723;51.206;3.326;2023-02-23T00:16:51;148.18;;;49.33;;
44989;SDS011;30723;51.206;3.326;2023-02-23T00:19:18;133.23;;;46.78;;
44989;SDS011;30723;51.206;3.326;2023-02-23T00:21:45;122.50;;;46.78;;
44989;SDS011;30723;51.206;3.326;2023-02-23T00:24:12;134.23;;;46.30;;
44989;SDS011;30723;51.206;3.326;2023-02-23T00:26:40;142.13;;;46.03;;
44989;SDS011;30723;51.206;3.326;2023-02-23T00:29:08;143.38;;;47.83;;
44989;SDS011;30723;51.206;3.326;2023-02-23T00:31:40;146.15;;;47.92;;
44989;SDS011;30723;51.206;3.326;2023-02-23T00:34:10;141.43;;;47.42;;
44989;SDS011;30723;51.206;3.326;2023-02-23T00:36:37;135.63;;;47.83;;
44989;SDS011;30723;51.206;3.326;2023-02-23T00:39:06;143.35;;;47.83;;
44989;SDS011;30723;51.206;3.326;2023-02-23T00:41:45;141.55;;;47.72;;
44989;SDS011;30723;51.206;3.326;2023-02-23T00:44:13;132.65;;;47.42;;
44989;SDS011;30723;51.206;3.326;2023-02-23T00:46:40;164.00;;;49.53;;
44989;SDS011;30723;51.206;3.326;2023-02-23T00:49:08;137.57;;;47.00;;
44989;SDS011;30723;51.206;3.326;2023-02-23T00:51:37;138.43;;;46.88;;
44989;SDS011;30723;51.206;3.326;2023-02-23T00:54:04;140.52;;;46.53;;
44989;SDS011;30723;51.206;3.326;2023-02-23T00:56:32;137.05;;;47.50;;
44989;SDS011;30723;51.206;3.326;2023-02-23T00:58:59;148.18;;;47.75;;
44989;SDS011;30723;51.206;3.326;2023-02-23T01:01:26;139.38;;;48.80;;
44989;SDS011;30723;51.206;3.326;2023-02-23T01:03:53;151.20;;;49.33;;
44989;SDS011;30723;51.206;3.326;2023-02-23T01:06:20;140.65;;;47.88;;
44989;SDS011;30723;51.206;3.326;2023-02-23T01:08:47;149.65;;;49.38;;
44989;SDS011;30723;51.206;3.326;2023-02-23T01:11:19;150.73;;;48.70;;
44989;SDS011;30723;51.206;3.326;2023-02-23T01:13:47;153.02;;;46.95;;
44989;SDS011;30723;51.206;3.326;2023-02-23T01:16:17;145.77;;;47.22;;
44989;SDS011;30723;51.206;3.326;2023-02-23T01:18:45;145.85;;;48.20;;
44989;SDS011;30723;51.206;3.326;2023-02-23T01:21:18;145.15;;;46.85;;
44989;SDS011;30723;51.206;3.326;2023-02-23T01:24:01;152.90;;;46.63;;
44989;SDS011;30723;51.206;3.326;2023-02-23T01:26:33;153.30;;;47.95;;
44989;SDS011;30723;51.206;3.326;2023-02-23T01:29:06;160.40;;;48.20;;
44989;SDS011;30723;51.206;3.326;2023-02-23T01:31:37;167.00;;;48.28;;
44989;SDS011;30723;51.206;3.326;2023-02-23T01:34:04;154.77;;;46.97;;
44989;SDS011;30723;51.206;3.326;2023-02-23T01:36:35;145.95;;;45.17;;
44989;SDS011;30723;51.206;3.326;2023-02-23T01:39:05;159.43;;;47.47;;
44989;SDS011;30723;51.206;3.326;2023-02-23T01:41:34;162.88;;;48.10;;
44989;SDS011;30723;51.206;3.326;2023-02-23T01:44:05;153.23;;;47.78;;
44989;SDS011;30723;51.206;3.326;2023-02-23T01:46:37;173.27;;;50.85;;
44989;SDS011;30723;51.206;3.326;2023-02-23T01:49:20;152.63;;;47.67;;
44989;SDS011;30723;51.206;3.326;2023-02-23T01:54:29;147.95;;;47.33;;
44989;SDS011;30723;51.206;3.326;2023-02-23T01:57:05;158.60;;;47.92;;
44989;SDS011;30723;51.206;3.326;2023-02-23T01:59:42;158.80;;;49.13;;
44989;SDS011;30723;51.206;3.326;2023-02-23T02:02:10;145.05;;;47.63;;
44989;SDS011;30723;51.206;3.326;2023-02-23T02:04:38;156.55;;;46.60;;
44989;SDS011;30723;51.206;3.326;2023-02-23T02:07:16;145.75;;;45.67;;
44989;SDS011;30723;51.206;3.326;2023-02-23T02:09:59;132.23;;;44.38;;
44989;SDS011;30723;51.206;3.326;2023-02-23T02:12:35;153.38;;;45.92;;
44989;SDS011;30723;51.206;3.326;2023-02-23T02:15:16;139.00;;;45.30;;
44989;SDS011;30723;51.206;3.326;2023-02-23T02:26:03;146.32;;;46.72;;
44989;SDS011;30723;51.206;3.326;2023-02-23T02:28:56;136.30;;;46.92;;
44989;SDS011;30723;51.206;3.326;2023-02-23T02:40:00;145.35;;;47.10;;
44989;SDS011;30723;51.206;3.326;2023-02-23T02:42:52;156.27;;;48.25;;
44989;SDS011;30723;51.206;3.326;2023-02-23T02:48:29;144.40;;;45.80;;
44989;SDS011;30723;51.206;3.326;2023-02-23T02:56:41;160.43;;;47.97;;
44989;SDS011;30723;51.206;3.326;2023-02-23T02:59:12;142.07;;;46.65;;
44989;SDS011;30723;51.206;3.326;2023-02-23T03:01:59;129.15;;;45.67;;
44989;SDS011;30723;51.206;3.326;2023-02-23T03:04:45;152.35;;;47.28;;
44989;SDS011;30723;51.206;3.326;2023-02-23T03:07:35;149.05;;;48.20;;
44989;SDS011;30723;51.206;3.326;2023-02-23T03:13:46;143.48;;;48.13;;
44989;SDS011;30723;51.206;3.326;2023-02-23T03:16:50;141.57;;;47.22;;
44989;SDS011;30723;51.206;3.326;2023-02-23T03:19:52;151.55;;;48.22;;
44989;SDS011;30723;51.206;3.326;2023-02-23T03:25:44;162.85;;;47.72;;
44989;SDS011;30723;51.206;3.326;2023-02-23T03:29:03;145.00;;;46.97;;
44989;SDS011;30723;51.206;3.326;2023-02-23T03:35:13;159.73;;;47.40;;
44989;SDS011;30723;51.206;3.326;2023-02-23T03:38:01;163.40;;;45.17;;
44989;SDS011;30723;51.206;3.326;2023-02-23T03:40:50;144.43;;;45.00;;
44989;SDS011;30723;51.206;3.326;2023-02-23T03:43:40;158.23;;;46.92;;
44989;SDS011;30723;51.206;3.326;2023-02-23T03:46:31;162.40;;;46.75;;
44989;SDS011;30723;51.206;3.326;2023-02-23T03:49:18;147.93;;;45.25;;
44989;SDS011;30723;51.206;3.326;2023-02-23T03:52:14;171.20;;;48.63;;
44989;SDS011;30723;51.206;3.326;2023-02-23T03:55:15;173.90;;;48.33;;
44989;SDS011;30723;51.206;3.326;2023-02-23T03:58:05;174.95;;;47.58;;
44989;SDS011;30723;51.206;3.326;2023-02-23T04:00:56;176.10;;;46.20;;
44989;SDS011;30723;51.206;3.326;2023-02-23T04:03:44;185.35;;;47.70;;
44989;SDS011;30723;51.206;3.326;2023-02-23T04:06:32;171.75;;;48.42;;
44989;SDS011;30723;51.206;3.326;2023-02-23T04:09:21;170.32;;;47.45;;
44989;SDS011;30723;51.206;3.326;2023-02-23T04:12:27;179.80;;;50.53;;
44989;SDS011;30723;51.206;3.326;2023-02-23T04:17:53;164.20;;;50.53;;
44989;SDS011;30723;51.206;3.326;2023-02-23T04:20:20;153.38;;;50.72;;
44989;SDS011;30723;51.206;3.326;2023-02-23T04:22:50;174.85;;;51.40;;
44989;SDS011;30723;51.206;3.326;2023-02-23T04:25:24;168.85;;;50.08;;
44989;SDS011;30723;51.206;3.326;2023-02-23T04:27:50;162.63;;;49.13;;
44989;SDS011;30723;51.206;3.326;2023-02-23T04:30:17;155.60;;;47.80;;
44989;SDS011;30723;51.206;3.326;2023-02-23T04:32:44;154.88;;;48.00;;
44989;SDS011;30723;51.206;3.326;2023-02-23T04:35:11;161.15;;;51.10;;
44989;SDS011;30723;51.206;3.326;2023-02-23T04:37:38;158.63;;;49.15;;
44989;SDS011;30723;51.206;3.326;2023-02-23T04:40:05;166.35;;;48.25;;
44989;SDS011;30723;51.206;3.326;2023-02-23T04:42:33;156.10;;;49.17;;
44989;SDS011;30723;51.206;3.326;2023-02-23T04:44:59;155.82;;;47.92;;
44989;SDS011;30723;51.206;3.326;2023-02-23T04:47:25;150.63;;;46.70;;
44989;SDS011;30723;51.206;3.326;2023-02-23T04:49:51;161.40;;;48.28;;
44989;SDS011;30723;51.206;3.326;2023-02-23T04:52:17;151.80;;;47.88;;
44989;SDS011;30723;51.206;3.326;2023-02-23T04:54:43;142.52;;;47.88;;
44989;SDS011;30723;51.206;3.326;2023-02-23T04:57:10;144.70;;;48.47;;
44989;SDS011;30723;51.206;3.326;2023-02-23T04:59:36;167.60;;;48.97;;
44989;SDS011;30723;51.206;3.326;2023-02-23T05:02:03;159.00;;;48.95;;
44989;SDS011;30723;51.206;3.326;2023-02-23T05:04:30;158.80;;;50.95;;
44989;SDS011;30723;51.206;3.326;2023-02-23T05:07:00;158.95;;;53.63;;
44989;SDS011;30723;51.206;3.326;2023-02-23T05:09:27;153.32;;;51.30;;
44989;SDS011;30723;51.206;3.326;2023-02-23T05:11:54;164.48;;;51.35;;
44989;SDS011;30723;51.206;3.326;2023-02-23T05:14:21;154.55;;;50.67;;
44989;SDS011;30723;51.206;3.326;2023-02-23T05:16:48;167.65;;;50.28;;
44989;SDS011;30723;51.206;3.326;2023-02-23T05:19:15;165.02;;;52.10;;
44989;SDS011;30723;51.206;3.326;2023-02-23T05:21:42;153.13;;;49.97;;
44989;SDS011;30723;51.206;3.326;2023-02-23T05:24:09;154.10;;;49.17;;
44989;SDS011;30723;51.206;3.326;2023-02-23T05:26:35;147.90;;;46.50;;
44989;SDS011;30723;51.206;3.326;2023-02-23T05:29:02;166.88;;;49.25;;
44989;SDS011;30723;51.206;3.326;2023-02-23T05:31:28;159.65;;;48.85;;
44989;SDS011;30723;51.206;3.326;2023-02-23T05:33:54;171.52;;;48.42;;
44989;SDS011;30723;51.206;3.326;2023-02-23T05:36:21;159.85;;;47.95;;
44989;SDS011;30723;51.206;3.326;2023-02-23T05:38:46;163.02;;;48.20;;
44989;SDS011;30723;51.206;3.326;2023-02-23T05:41:14;166.57;;;48.00;;
44989;SDS011;30723;51.206;3.326;2023-02-23T05:43:45;142.75;;;47.00;;
44989;SDS011;30723;51.206;3.326;2023-02-23T05:46:16;157.40;;;44.33;;
44989;SDS011;30723;51.206;3.326;2023-02-23T05:48:46;160.85;;;46.65;;
44989;SDS011;30723;51.206;3.326;2023-02-23T05:51:14;152.15;;;46.67;;
44989;SDS011;30723;51.206;3.326;2023-02-23T05:53:42;150.73;;;47.08;;
44989;SDS011;30723;51.206;3.326;2023-02-23T05:56:12;133.75;;;43.70;;
44989;SDS011;30723;51.206;3.326;2023-02-23T05:58:44;140.80;;;44.15;;
44989;SDS011;30723;51.206;3.326;2023-02-23T06:01:15;156.73;;;46.75;;
44989;SDS011;30723;51.206;3.326;2023-02-23T06:03:43;150.90;;;46.80;;
44989;SDS011;30723;51.206;3.326;2023-02-23T06:06:10;143.32;;;46.60;;
44989;SDS011;30723;51.206;3.326;2023-02-23T06:08:37;150.15;;;47.88;;
44989;SDS011;30723;51.206;3.326;2023-02-23T06:11:04;161.63;;;45.85;;
44989;SDS011;30723;51.206;3.326;2023-02-23T06:13:31;139.35;;;45.95;;
44989;SDS011;30723;51.206;3.326;2023-02-23T06:15:57;155.38;;;46.80;;
44989;SDS011;30723;51.206;3.326;2023-02-23T06:18:25;151.63;;;43.50;;
44989;SDS011;30723;51.206;3.326;2023-02-23T06:20:51;148.95;;;46.17;;
44989;SDS011;30723;51.206;3.326;2023-02-23T06:23:18;143.25;;;47.20;;
44989;SDS011;30723;51.206;3.326;2023-02-23T06:25:45;167.73;;;47.60;;
44989;SDS011;30723;51.206;3.326;2023-02-23T06:28:13;164.50;;;46.85;;
44989;SDS011;30723;51.206;3.326;2023-02-23T06:30:39;146.45;;;47.90;;
44989;SDS011;30723;51.206;3.326;2023-02-23T06:33:06;152.73;;;45.63;;
44989;SDS011;30723;51.206;3.326;2023-02-23T06:35:33;161.02;;;45.72;;
44989;SDS011;30723;51.206;3.326;2023-02-23T06:38:00;164.40;;;48.25;;
44989;SDS011;30723;51.206;3.326;2023-02-23T06:40:28;170.90;;;46.15;;
44989;SDS011;30723;51.206;3.326;2023-02-23T06:42:55;163.05;;;43.88;;
44989;SDS011;30723;51.206;3.326;2023-02-23T06:45:21;173.88;;;46.00;;
44989;SDS011;30723;51.206;3.326;2023-02-23T06:47:48;144.95;;;45.72;;
44989;SDS011;30723;51.206;3.326;2023-02-23T06:50:14;159.73;;;46.35;;
44989;SDS011;30723;51.206;3.326;2023-02-23T06:52:41;148.27;;;44.35;;
44989;SDS011;30723;51.206;3.326;2023-02-23T06:55:07;166.02;;;46.35;;
44989;SDS011;30723;51.206;3.326;2023-02-23T06:57:37;148.52;;;45.05;;
44989;SDS011;30723;51.206;3.326;2023-02-23T07:00:05;157.25;;;46.47;;
44989;SDS011;30723;51.206;3.326;2023-02-23T07:02:34;171.30;;;46.90;;
44989;SDS011;30723;51.206;3.326;2023-02-23T07:05:02;166.35;;;45.88;;
44989;SDS011;30723;51.206;3.326;2023-02-23T07:07:30;159.52;;;44.78;;
44989;SDS011;30723;51.206;3.326;2023-02-23T07:10:04;170.55;;;49.20;;
44989;SDS011;30723;51.206;3.326;2023-02-23T07:12:32;170.68;;;46.40;;
44989;SDS011;30723;51.206;3.326;2023-02-23T07:14:59;169.32;;;47.95;;
44989;SDS011;30723;51.206;3.326;2023-02-23T07:17:25;176.30;;;47.13;;
44989;SDS011;30723;51.206;3.326;2023-02-23T07:19:51;183.10;;;48.03;;
44989;SDS011;30723;51.206;3.326;2023-02-23T07:22:18;196.65;;;49.30;;
44989;SDS011;30723;51.206;3.326;2023-02-23T07:24:46;169.38;;;47.70;;
44989;SDS011;30723;51.206;3.326;2023-02-23T07:27:13;209.45;;;47.88;;
44989;SDS011;30723;51.206;3.326;2023-02-23T07:29:40;223.90;;;51.63;;
44989;SDS011;30723;51.206;3.326;2023-02-23T07:32:06;234.85;;;52.03;;
44989;SDS011;30723;51.206;3.326;2023-02-23T07:34:33;255.77;;;55.17;;
44989;SDS011;30723;51.206;3.326;2023-02-23T07:37:01;245.63;;;51.60;;
44989;SDS011;30723;51.206;3.326;2023-02-23T07:39:28;274.33;;;53.22;;
44989;SDS011;30723;51.206;3.326;2023-02-23T07:41:55;278.48;;;53.00;;
44989;SDS011;30723;51.206;3.326;2023-02-23T07:44:21;269.90;;;52.80;;
44989;SDS011;30723;51.206;3.326;2023-02-23T07:46:48;258.55;;;52.03;;
44989;SDS011;30723;51.206;3.326;2023-02-23T07:49:16;247.30;;;53.15;;
44989;SDS011;30723;51.206;3.326;2023-02-23T07:51:43;230.07;;;51.03;;
44989;SDS011;30723;51.206;3.326;2023-02-23T07:54:10;232.82;;;50.13;;
44989;SDS011;30723;51.206;3.326;2023-02-23T07:56:36;216.88;;;50.22;;
44989;SDS011;30723;51.206;3.326;2023-02-23T07:59:02;204.93;;;48.60;;
44989;SDS011;30723;51.206;3.326;2023-02-23T08:01:28;190.57;;;47.50;;
44989;SDS011;30723;51.206;3.326;2023-02-23T08:03:55;190.52;;;45.40;;
44989;SDS011;30723;51.206;3.326;2023-02-23T08:06:21;186.90;;;45.30;;
44989;SDS011;30723;51.206;3.326;2023-02-23T08:08:47;163.73;;;43.85;;
44989;SDS011;30723;51.206;3.326;2023-02-23T08:11:13;174.32;;;44.10;;
44989;SDS011;30723;51.206;3.326;2023-02-23T08:13:41;164.25;;;44.42;;
44989;SDS011;30723;51.206;3.326;2023-02-23T08:16:14;162.65;;;41.47;;
44989;SDS011;30723;51.206;3.326;2023-02-23T08:18:41;154.23;;;41.67;;
44989;SDS011;30723;51.206;3.326;2023-02-23T08:21:14;152.43;;;41.10;;
44989;SDS011;30723;51.206;3.326;2023-02-23T08:23:41;151.23;;;41.22;;
44989;SDS011;30723;51.206;3.326;2023-02-23T08:26:08;158.43;;;39.78;;
44989;SDS011;30723;51.206;3.326;2023-02-23T08:28:35;135.27;;;39.55;;
44989;SDS011;30723;51.206;3.326;2023-02-23T08:31:02;152.13;;;40.13;;
44989;SDS011;30723;51.206;3.326;2023-02-23T08:33:34;147.73;;;37.17;;
44989;SDS011;30723;51.206;3.326;2023-02-23T08:36:02;149.15;;;38.75;;
44989;SDS011;30723;51.206;3.326;2023-02-23T08:38:29;146.00;;;37.13;;
44989;SDS011;30723;51.206;3.326;2023-02-23T08:40:58;134.07;;;37.65;;
44989;SDS011;30723;51.206;3.326;2023-02-23T08:43:26;142.57;;;39.20;;
44989;SDS011;30723;51.206;3.326;2023-02-23T08:45:52;141.63;;;37.08;;
44989;SDS011;30723;51.206;3.326;2023-02-23T08:48:18;145.00;;;37.53;;
44989;SDS011;30723;51.206;3.326;2023-02-23T08:50:47;112.18;;;34.03;;
44989;SDS011;30723;51.206;3.326;2023-02-23T08:53:14;123.82;;;33.78;;
44989;SDS011;30723;51.206;3.326;2023-02-23T08:55:41;118.03;;;34.67;;
44989;SDS011;30723;51.206;3.326;2023-02-23T08:58:08;134.07;;;35.88;;
44989;SDS011;30723;51.206;3.326;2023-02-23T09:00:35;107.43;;;33.42;;
44989;SDS011;30723;51.206;3.326;2023-02-23T09:03:05;98.68;;;32.30;;
44989;SDS011;30723;51.206;3.326;2023-02-23T09:05:32;107.60;;;33.13;;
44989;SDS011;30723;51.206;3.326;2023-02-23T09:08:02;101.82;;;32.35;;
44989;SDS011;30723;51.206;3.326;2023-02-23T09:10:29;101.75;;;31.88;;
44989;SDS011;30723;51.206;3.326;2023-02-23T09:12:57;99.30;;;31.45;;
44989;SDS011;30723;51.206;3.326;2023-02-23T09:15:23;94.13;;;32.03;;
44989;SDS011;30723;51.206;3.326;2023-02-23T09:17:50;94.85;;;31.48;;
44989;SDS011;30723;51.206;3.326;2023-02-23T09:20:16;92.55;;;30.35;;
44989;SDS011;30723;51.206;3.326;2023-02-23T09:22:43;86.88;;;30.73;;
44989;SDS011;30723;51.206;3.326;2023-02-23T09:25:16;81.38;;;28.92;;
44989;SDS011;30723;51.206;3.326;2023-02-23T09:27:46;89.70;;;30.02;;
44989;SDS011;30723;51.206;3.326;2023-02-23T09:30:13;82.82;;;29.13;;
44989;SDS011;30723;51.206;3.326;2023-02-23T09:32:44;83.88;;;29.63;;
44989;SDS011;30723;51.206;3.326;2023-02-23T09:35:11;74.50;;;28.33;;
44989;SDS011;30723;51.206;3.326;2023-02-23T09:37:42;77.40;;;27.38;;
44989;SDS011;30723;51.206;3.326;2023-02-23T09:40:13;64.75;;;26.13;;
44989;SDS011;30723;51.206;3.326;2023-02-23T09:50:27;68.28;;;27.85;;
44989;SDS011;30723;51.206;3.326;2023-02-23T09:52:59;70.03;;;26.42;;
44989;SDS011;30723;51.206;3.326;2023-02-23T09:55:41;62.47;;;24.90;;
44989;SDS011;30723;51.206;3.326;2023-02-23T09:58:42;66.40;;;26.73;;
44989;SDS011;30723;51.206;3.326;2023-02-23T10:01:05;72.40;;;27.55;;
44989;SDS011;30723;51.206;3.326;2023-02-23T10:06:32;61.80;;;26.23;;
44989;SDS011;30723;51.206;3.326;2023-02-23T10:09:14;62.75;;;26.10;;
44989;SDS011;30723;51.206;3.326;2023-02-23T10:11:52;61.15;;;24.77;;
44989;SDS011;30723;51.206;3.326;2023-02-23T10:14:44;53.55;;;25.35;;
44989;SDS011;30723;51.206;3.326;2023-02-23T10:17:53;61.42;;;25.83;;
44989;SDS011;30723;51.206;3.326;2023-02-23T10:20:27;56.58;;;26.02;;
44989;SDS011;30723;51.206;3.326;2023-02-23T10:23:10;53.42;;;25.70;;
44989;SDS011;30723;51.206;3.326;2023-02-23T10:25:54;52.38;;;25.17;;
44989;SDS011;30723;51.206;3.326;2023-02-23T10:30:52;55.30;;;24.55;;
44989;SDS011;30723;51.206;3.326;2023-02-23T10:33:40;57.60;;;25.15;;
44989;SDS011;30723;51.206;3.326;2023-02-23T10:36:14;51.30;;;24.27;;
44989;SDS011;30723;51.206;3.326;2023-02-23T10:41:30;47.83;;;22.08;;
44989;SDS011;30723;51.206;3.326;2023-02-23T10:43:56;48.40;;;22.83;;
44989;SDS011;30723;51.206;3.326;2023-02-23T10:46:25;49.20;;;22.70;;
44989;SDS011;30723;51.206;3.326;2023-02-23T10:49:02;38.75;;;18.63;;
44989;SDS011;30723;51.206;3.326;2023-02-23T10:51:42;34.83;;;18.85;;
44989;SDS011;30723;51.206;3.326;2023-02-23T10:57:07;33.72;;;16.88;;
44989;SDS011;30723;51.206;3.326;2023-02-23T10:59:37;31.30;;;16.92;;
44989;SDS011;30723;51.206;3.326;2023-02-23T11:02:23;30.92;;;16.63;;
44989;SDS011;30723;51.206;3.326;2023-02-23T11:04:52;38.25;;;17.45;;
44989;SDS011;30723;51.206;3.326;2023-02-23T11:07:25;33.47;;;18.00;;
44989;SDS011;30723;51.206;3.326;2023-02-23T11:09:54;32.20;;;17.65;;
44989;SDS011;30723;51.206;3.326;2023-02-23T11:12:23;31.35;;;16.85;;
44989;SDS011;30723;51.206;3.326;2023-02-23T11:14:55;31.00;;;17.27;;
44989;SDS011;30723;51.206;3.326;2023-02-23T11:19:51;31.52;;;16.55;;
44989;SDS011;30723;51.206;3.326;2023-02-23T11:22:35;30.40;;;15.95;;
44989;SDS011;30723;51.206;3.326;2023-02-23T11:25:24;26.15;;;15.50;;
44989;SDS011;30723;51.206;3.326;2023-02-23T11:27:54;32.38;;;16.13;;
44989;SDS011;30723;51.206;3.326;2023-02-23T11:30:24;29.33;;;15.57;;
44989;SDS011;30723;51.206;3.326;2023-02-23T11:33:07;28.90;;;16.15;;
44989;SDS011;30723;51.206;3.326;2023-02-23T11:35:41;29.50;;;16.98;;
44989;SDS011;30723;51.206;3.326;2023-02-23T11:38:40;27.52;;;15.75;;
44989;SDS011;30723;51.206;3.326;2023-02-23T11:41:01;29.90;;;16.38;;
44989;SDS011;30723;51.206;3.326;2023-02-23T11:43:28;27.58;;;14.27;;
44989;SDS011;30723;51.206;3.326;2023-02-23T11:45:56;25.23;;;15.23;;
44989;SDS011;30723;51.206;3.326;2023-02-23T11:50:58;26.23;;;14.70;;
44989;SDS011;30723;51.206;3.326;2023-02-23T11:53:36;27.48;;;14.98;;
44989;SDS011;30723;51.206;3.326;2023-02-23T11:56:09;26.63;;;15.35;;
44989;SDS011;30723;51.206;3.326;2023-02-23T12:01:45;25.47;;;15.23;;
44989;SDS011;30723;51.206;3.326;2023-02-23T12:04:25;27.38;;;14.73;;
44989;SDS011;30723;51.206;3.326;2023-02-23T12:07:39;21.77;;;13.65;;
44989;SDS011;30723;51.206;3.326;2023-02-23T12:09:45;22.45;;;13.48;;
44989;SDS011;30723;51.206;3.326;2023-02-23T12:16:00;21.40;;;12.20;;
44989;SDS011;30723;51.206;3.326;2023-02-23T12:30:16;18.83;;;10.32;;
44989;SDS011;30723;51.206;3.326;2023-02-23T12:32:58;18.35;;;10.50;;
44989;SDS011;30723;51.206;3.326;2023-02-23T12:35:48;23.15;;;10.85;;
44989;SDS011;30723;51.206;3.326;2023-02-23T12:38:56;15.20;;;9.85;;
44989;SDS011;30723;51.206;3.326;2023-02-23T12:44:20;17.70;;;10.27;;
44989;SDS011;30723;51.206;3.326;2023-02-23T12:47:12;15.98;;;9.77;;
44989;SDS011;30723;51.206;3.326;2023-02-23T12:50:05;18.15;;;10.50;;
44989;SDS011;30723;51.206;3.326;2023-02-23T12:52:53;13.43;;;9.25;;
44989;SDS011;30723;51.206;3.326;2023-02-23T13:09:29;15.93;;;9.98;;
44989;SDS011;30723;51.206;3.326;2023-02-23T13:14:47;13.45;;;9.23;;
44989;SDS011;30723;51.206;3.326;2023-02-23T13:27:54;9.50;;;7.05;;
44989;SDS011;30723;51.206;3.326;2023-02-23T13:30:24;10.45;;;8.10;;
44989;SDS011;30723;51.206;3.326;2023-02-23T13:32:50;10.32;;;7.15;;
44989;SDS011;30723;51.206;3.326;2023-02-23T13:35:18;11.10;;;7.63;;
44989;SDS011;30723;51.206;3.326;2023-02-23T13:37:50;10.43;;;7.65;;
44989;SDS011;30723;51.206;3.326;2023-02-23T13:48:46;9.52;;;6.85;;
44989;SDS011;30723;51.206;3.326;2023-02-23T13:54:03;12.55;;;7.97;;
44989;SDS011;30723;51.206;3.326;2023-02-23T13:59:26;13.27;;;8.80;;
44989;SDS011;30723;51.206;3.326;2023-02-23T14:01:57;14.13;;;9.05;;
44989;SDS011;30723;51.206;3.326;2023-02-23T14:04:35;14.20;;;9.27;;
44989;SDS011;30723;51.206;3.326;2023-02-23T14:09:46;18.83;;;10.45;;
44989;SDS011;30723;51.206;3.326;2023-02-23T14:12:37;16.40;;;9.95;;
44989;SDS011;30723;51.206;3.326;2023-02-23T14:17:57;17.58;;;10.73;;
44989;SDS011;30723;51.206;3.326;2023-02-23T14:28:11;19.25;;;11.50;;
44989;SDS011;30723;51.206;3.326;2023-02-23T14:30:49;17.92;;;11.35;;
44989;SDS011;30723;51.206;3.326;2023-02-23T14:41:29;15.88;;;10.13;;
44989;SDS011;30723;51.206;3.326;2023-02-23T14:44:29;17.20;;;11.15;;
44989;SDS011;30723;51.206;3.326;2023-02-23T14:49:31;17.60;;;10.63;;
44989;SDS011;30723;51.206;3.326;2023-02-23T14:52:05;16.45;;;10.43;;
44989;SDS011;30723;51.206;3.326;2023-02-23T14:55:15;18.55;;;10.02;;
44989;SDS011;30723;51.206;3.326;2023-02-23T14:57:45;18.15;;;10.77;;
44989;SDS011;30723;51.206;3.326;2023-02-23T15:00:23;16.85;;;11.52;;
44989;SDS011;30723;51.206;3.326;2023-02-23T15:02:56;17.70;;;11.20;;
44989;SDS011;30723;51.206;3.326;2023-02-23T15:05:42;21.83;;;11.52;;
44989;SDS011;30723;51.206;3.326;2023-02-23T15:08:16;20.38;;;11.27;;
44989;SDS011;30723;51.206;3.326;2023-02-23T15:10:48;17.67;;;11.73;;
44989;SDS011;30723;51.206;3.326;2023-02-23T15:13:35;19.30;;;11.05;;
44989;SDS011;30723;51.206;3.326;2023-02-23T15:16:28;21.45;;;11.43;;
44989;SDS011;30723;51.206;3.326;2023-02-23T15:18:52;17.45;;;10.40;;
44989;SDS011;30723;51.206;3.326;2023-02-23T15:21:20;15.68;;;8.73;;
44989;SDS011;30723;51.206;3.326;2023-02-23T15:23:48;16.08;;;9.13;;
44989;SDS011;30723;51.206;3.326;2023-02-23T15:26:33;10.88;;;7.22;;
44989;SDS011;30723;51.206;3.326;2023-02-23T15:29:16;15.63;;;8.50;;
44989;SDS011;30723;51.206;3.326;2023-02-23T15:31:45;11.98;;;8.13;;
44989;SDS011;30723;51.206;3.326;2023-02-23T15:34:17;14.77;;;8.23;;
44989;SDS011;30723;51.206;3.326;2023-02-23T15:36:50;12.88;;;7.85;;
44989;SDS011;30723;51.206;3.326;2023-02-23T15:39:27;12.93;;;7.22;;
44989;SDS011;30723;51.206;3.326;2023-02-23T15:42:30;15.65;;;7.65;;
44989;SDS011;30723;51.206;3.326;2023-02-23T15:45:12;14.68;;;7.53;;
44989;SDS011;30723;51.206;3.326;2023-02-23T15:47:58;13.93;;;8.05;;
44989;SDS011;30723;51.206;3.326;2023-02-23T15:50:34;12.18;;;6.78;;
44989;SDS011;30723;51.206;3.326;2023-02-23T15:53:19;13.10;;;6.32;;
44989;SDS011;30723;51.206;3.326;2023-02-23T15:55:56;12.50;;;6.97;;
44989;SDS011;30723;51.206;3.326;2023-02-23T15:58:48;12.48;;;5.78;;
44989;SDS011;30723;51.206;3.326;2023-02-23T16:01:28;11.48;;;6.40;;
44989;SDS011;30723;51.206;3.326;2023-02-23T16:06:37;10.13;;;5.55;;
44989;SDS011;30723;51.206;3.326;2023-02-23T16:09:14;10.65;;;5.78;;
44989;SDS011;30723;51.206;3.326;2023-02-23T16:11:54;9.38;;;5.32;;
44989;SDS011;30723;51.206;3.326;2023-02-23T16:14:26;9.68;;;4.50;;
44989;SDS011;30723;51.206;3.326;2023-02-23T16:17:24;9.88;;;3.97;;
44989;SDS011;30723;51.206;3.326;2023-02-23T16:20:05;14.27;;;4.07;;
44989;SDS011;30723;51.206;3.326;2023-02-23T16:22:43;12.63;;;3.78;;
44989;SDS011;30723;51.206;3.326;2023-02-23T16:25:12;14.23;;;3.20;;
44989;SDS011;30723;51.206;3.326;2023-02-23T16:27:40;12.48;;;3.75;;
44989;SDS011;30723;51.206;3.326;2023-02-23T16:32:48;10.30;;;3.08;;
44989;SDS011;30723;51.206;3.326;2023-02-23T16:35:37;12.02;;;3.97;;
44989;SDS011;30723;51.206;3.326;2023-02-23T16:38:21;15.85;;;4.00;;
44989;SDS011;30723;51.206;3.326;2023-02-23T16:41:00;17.80;;;4.05;;
44989;SDS011;30723;51.206;3.326;2023-02-23T16:43:31;27.10;;;5.28;;
44989;SDS011;30723;51.206;3.326;2023-02-23T16:45:59;20.10;;;5.03;;
44989;SDS011;30723;51.206;3.326;2023-02-23T16:48:25;14.77;;;4.10;;
44989;SDS011;30723;51.206;3.326;2023-02-23T16:50:52;14.90;;;4.13;;
44989;SDS011;30723;51.206;3.326;2023-02-23T16:53:19;20.08;;;3.95;;
44989;SDS011;30723;51.206;3.326;2023-02-23T16:55:49;11.55;;;3.17;;
44989;SDS011;30723;51.206;3.326;2023-02-23T16:58:36;9.05;;;2.53;;
44989;SDS011;30723;51.206;3.326;2023-02-23T17:01:04;14.48;;;3.15;;
44989;SDS011;30723;51.206;3.326;2023-02-23T17:03:31;17.90;;;3.35;;
44989;SDS011;30723;51.206;3.326;2023-02-23T17:05:57;10.40;;;2.53;;
44989;SDS011;30723;51.206;3.326;2023-02-23T17:08:23;7.25;;;2.08;;
44989;SDS011;30723;51.206;3.326;2023-02-23T17:10:50;9.23;;;3.20;;
44989;SDS011;30723;51.206;3.326;2023-02-23T17:13:19;10.35;;;2.88;;
44989;SDS011;30723;51.206;3.326;2023-02-23T17:15:46;11.05;;;3.42;;
44989;SDS011;30723;51.206;3.326;2023-02-23T17:18:16;15.88;;;3.28;;
44989;SDS011;30723;51.206;3.326;2023-02-23T17:20:49;14.70;;;4.32;;
44989;SDS011;30723;51.206;3.326;2023-02-23T17:23:16;15.50;;;3.70;;
44989;SDS011;30723;51.206;3.326;2023-02-23T17:25:44;17.33;;;3.72;;
44989;SDS011;30723;51.206;3.326;2023-02-23T17:28:10;16.20;;;3.90;;